Time;durP1;ratioP1;P1;durP2;ratioP2;P2;SDS_P1;SDS_P2;PMS_P1;PMS_P2;Temp;Humidity;BMP_temperature;BMP_pressure;BME280_temperature;BME280_humidity;BME280_pressure;Samples;Min_cycle;Max_cycle;Signal;HPM_P1;HPM_P2
2021/09/16 00:00:32;;;;;;;0.40;0.10;;;;;;;17.73;64.46;100230.83;112336;1199;95511;-73
2021/09/16 00:03:01;;;;;;;0.40;0.10;;;;;;;17.75;64.39;100229.12;112381;1199;94855;-72
2021/09/16 00:05:28;;;;;;;0.40;0.10;;;;;;;17.71;64.53;100222.31;112341;1203;137659;-72
2021/09/16 00:07:54;;;;;;;0.40;0.10;;;;;;;17.78;64.58;100224.24;112446;1203;94923;-72
2021/09/16 00:10:21;;;;;;;0.40;0.10;;;;;;;17.82;64.16;100223.52;112314;1198;138378;-73
2021/09/16 00:12:48;;;;;;;0.40;0.10;;;;;;;17.83;64.44;100219.83;112459;1198;95173;-72
2021/09/16 00:15:14;;;;;;;0.40;0.10;;;;;;;17.82;64.20;100220.80;112332;1199;109453;-72
2021/09/16 00:17:41;;;;;;;0.40;0.10;;;;;;;17.85;64.37;100217.58;112407;1197;138110;-73
2021/09/16 00:20:09;;;;;;;0.40;0.10;;;;;;;17.83;64.15;100218.42;112435;1203;94861;-73
2021/09/16 00:22:35;;;;;;;0.40;0.10;;;;;;;17.85;64.14;100216.67;112258;1198;138050;-72
2021/09/16 00:25:04;;;;;;;0.40;0.10;;;;;;;17.86;64.18;100210.33;112518;1203;94862;-72
2021/09/16 00:27:31;;;;;;;0.40;0.10;;;;;;;17.83;64.31;100206.37;112549;1197;94931;-72
2021/09/16 00:29:58;;;;;;;0.40;0.10;;;;;;;17.84;64.51;100201.66;112309;1198;137785;-72
2021/09/16 00:32:25;;;;;;;0.40;0.10;;;;;;;17.85;64.25;100201.95;112415;1204;94916;-72
2021/09/16 00:34:52;;;;;;;0.40;0.10;;;;;;;17.85;64.23;100201.92;112392;1198;138451;-72
2021/09/16 00:37:18;;;;;;;0.40;0.10;;;;;;;17.82;64.32;100200.17;112623;1203;94913;-74
2021/09/16 00:39:45;;;;;;;0.40;0.10;;;;;;;17.76;64.44;100196.56;112501;1203;94835;-73
2021/09/16 00:42:16;;;;;;;0.40;0.10;;;;;;;17.75;64.38;100191.45;112320;1199;138028;-72
2021/09/16 00:44:43;;;;;;;0.40;0.10;;;;;;;17.75;64.45;100191.25;112637;1198;109310;-72
2021/09/16 00:47:11;;;;;;;0.40;0.10;;;;;;;17.74;64.56;100185.38;112279;1197;137845;-72
2021/09/16 00:49:38;;;;;;;0.40;0.10;;;;;;;17.74;64.60;100185.75;112448;1199;95365;-72
2021/09/16 00:52:07;;;;;;;0.40;0.10;;;;;;;17.72;64.48;100184.59;112356;1199;138800;-72
2021/09/16 00:54:34;;;;;;;0.40;0.10;;;;;;;17.71;64.60;100184.48;112472;1203;107716;-75
2021/09/16 00:57:03;;;;;;;0.40;0.10;;;;;;;17.76;64.61;100183.64;112388;1203;109493;-75
2021/09/16 00:59:31;;;;;;;0.40;0.10;;;;;;;17.75;64.59;100184.26;112310;1205;137900;-74
2021/09/16 01:01:57;;;;;;;0.40;0.10;;;;;;;17.75;64.46;100186.54;112433;1198;95331;-75
2021/09/16 01:04:24;;;;;;;0.40;0.10;;;;;;;17.75;64.52;100186.21;112335;1198;137304;-72
2021/09/16 01:06:54;;;;;;;0.40;0.10;;;;;;;17.69;64.43;100184.56;112387;1200;95374;-72
2021/09/16 01:09:21;;;;;;;0.40;0.10;;;;;;;17.64;64.63;100182.52;112299;1207;95318;-74
2021/09/16 01:11:48;;;;;;;0.40;0.10;;;;;;;17.65;64.60;100177.28;112287;1199;138304;-74
2021/09/16 01:14:26;;;;;;;0.40;0.10;;;;;;;17.63;64.58;100173.83;112295;1203;94850;-74
2021/09/16 01:16:54;;;;;;;0.40;0.10;;;;;;;17.65;64.58;100174.20;112262;1199;137247;-73
2021/09/16 01:19:21;;;;;;;0.40;0.10;;;;;;;17.63;64.59;100174.34;112249;1203;94827;-71
2021/09/16 01:21:49;;;;;;;0.40;0.10;;;;;;;17.62;64.56;100173.67;112399;1197;94932;-74
2021/09/16 01:24:15;;;;;;;0.40;0.10;;;;;;;17.61;64.69;100168.38;112220;1200;137764;-73
2021/09/16 01:26:43;;;;;;;0.40;0.10;;;;;;;17.60;64.72;100166.08;112354;1203;94945;-72
2021/09/16 01:29:11;;;;;;;0.40;0.10;;;;;;;17.58;64.70;100164.08;112284;1198;138371;-72
2021/09/16 01:31:46;;;;;;;0.40;0.10;;;;;;;17.52;64.77;100164.36;112344;1199;95320;-74
2021/09/16 01:34:16;;;;;;;0.40;0.10;;;;;;;17.58;64.87;100166.59;112251;1205;137368;-72
2021/09/16 01:36:45;;;;;;;0.40;0.10;;;;;;;17.56;64.53;100165.39;112527;1198;109507;-72
2021/09/16 01:39:17;;;;;;;0.40;0.10;;;;;;;17.51;64.55;100161.77;112267;1198;94927;-72
2021/09/16 01:41:44;;;;;;;0.40;0.10;;;;;;;17.47;64.72;100157.13;112218;1199;137075;-73
2021/09/16 01:44:12;;;;;;;0.40;0.10;;;;;;;17.47;64.81;100158.26;112322;1198;109144;-73
2021/09/16 01:46:38;;;;;;;0.40;0.10;;;;;;;17.52;64.76;100154.88;112235;1203;138455;-73
2021/09/16 01:49:05;;;;;;;0.40;0.10;;;;;;;17.57;64.64;100149.04;112360;1206;94927;-73
2021/09/16 01:51:33;;;;;;;0.40;0.10;;;;;;;17.52;64.63;100146.63;112323;1198;95222;-73
2021/09/16 01:54:01;;;;;;;0.40;0.10;;;;;;;17.52;64.65;100147.48;112139;1199;138314;-73
2021/09/16 01:56:27;;;;;;;0.40;0.10;;;;;;;17.53;64.69;100149.06;112338;1205;95008;-73
2021/09/16 01:58:54;;;;;;;0.40;0.10;;;;;;;17.61;64.68;100150.08;112198;1200;137745;-73
2021/09/16 02:01:21;;;;;;;0.40;0.10;;;;;;;17.56;64.60;100148.58;112327;1205;95108;-73
2021/09/16 02:03:48;;;;;;;0.40;0.10;;;;;;;17.55;64.56;100142.13;112262;1199;95842;-74
2021/09/16 02:06:15;;;;;;;0.40;0.10;;;;;;;17.55;64.63;100138.16;112277;1198;138883;-73
2021/09/16 02:08:42;;;;;;;0.40;0.10;;;;;;;17.60;64.63;100139.34;112389;1198;94946;-73
2021/09/16 02:11:09;;;;;;;0.40;0.10;;;;;;;17.62;64.53;100136.68;112231;1203;137351;-73
2021/09/16 02:13:35;;;;;;;0.40;0.10;;;;;;;17.66;64.81;100134.65;112261;1199;94840;-73
2021/09/16 02:16:03;;;;;;;0.40;0.10;;;;;;;17.70;64.48;100136.56;112179;1203;138563;-74
2021/09/16 02:18:29;;;;;;;0.40;0.10;;;;;;;17.68;64.26;100130.25;112310;1198;95314;-75
2021/09/16 02:20:56;;;;;;;0.40;0.10;;;;;;;17.66;64.46;100126.98;112310;1199;94852;-72
2021/09/16 02:23:23;;;;;;;0.40;0.10;;;;;;;17.64;64.19;100122.44;112232;1199;137778;-73
2021/09/16 02:25:50;;;;;;;0.40;0.10;;;;;;;17.61;64.23;100123.16;112319;1203;95063;-73
2021/09/16 02:28:17;;;;;;;0.40;0.10;;;;;;;17.63;64.45;100119.43;112228;1199;138928;-73
2021/09/16 02:30:51;;;;;;;0.40;0.10;;;;;;;17.61;64.43;100118.84;112329;1198;94821;-72
2021/09/16 02:33:18;;;;;;;0.40;0.10;;;;;;;17.53;64.60;100118.02;112354;1198;95315;-72
2021/09/16 02:35:51;;;;;;;0.40;0.10;;;;;;;17.50;64.67;100110.86;112224;1199;139028;-72
2021/09/16 02:38:19;;;;;;;0.40;0.10;;;;;;;17.50;64.86;100110.27;112274;1199;108573;-72
2021/09/16 02:40:46;;;;;;;0.40;0.10;;;;;;;17.48;64.89;100101.11;112226;1198;137926;-72
2021/09/16 02:43:13;;;;;;;0.40;0.10;;;;;;;17.48;64.94;100106.28;112314;1203;94884;-72
2021/09/16 02:45:39;;;;;;;0.40;0.10;;;;;;;17.48;65.03;100104.31;112375;1201;94839;-72
2021/09/16 02:48:06;;;;;;;0.40;0.10;;;;;;;17.47;64.91;100102.06;112239;1198;138276;-72
2021/09/16 02:50:34;;;;;;;0.40;0.10;;;;;;;17.48;65.10;100096.44;112409;1200;94909;-72
2021/09/16 02:53:00;;;;;;;0.40;0.10;;;;;;;17.44;65.04;100097.02;112337;1202;137345;-72
2021/09/16 02:55:27;;;;;;;0.40;0.10;;;;;;;17.43;65.29;100096.73;112419;1198;94839;-72
2021/09/16 02:57:54;;;;;;;0.40;0.10;;;;;;;17.45;65.37;100095.70;112376;1199;94905;-72
2021/09/16 03:00:20;;;;;;;0.40;0.10;;;;;;;17.48;65.26;100098.77;112264;1199;137793;-73
2021/09/16 03:02:48;;;;;;;0.40;0.10;;;;;;;17.47;65.14;100099.33;112424;1199;94976;-73
2021/09/16 03:05:14;;;;;;;0.40;0.10;;;;;;;17.42;65.17;100099.85;112283;1198;137410;-73
2021/09/16 03:07:41;;;;;;;0.40;0.10;;;;;;;17.36;65.48;100099.10;112359;1203;95332;-72
2021/09/16 03:10:10;;;;;;;0.40;0.10;;;;;;;17.32;65.53;100095.36;112327;1202;138539;-72
2021/09/16 03:12:37;;;;;;;0.40;0.10;;;;;;;17.37;65.69;100094.72;112382;1205;108536;-73
2021/09/16 03:15:04;;;;;;;0.40;0.10;;;;;;;17.38;65.52;100093.44;112378;1203;97185;-73
2021/09/16 03:17:31;;;;;;;0.40;0.10;;;;;;;17.31;65.68;100089.67;112248;1203;136278;-72
2021/09/16 03:19:58;;;;;;;0.40;0.10;;;;;;;17.27;65.77;100088.89;112195;1198;95614;-73
2021/09/16 03:22:25;;;;;;;0.40;0.10;;;;;;;17.24;65.86;100086.70;112383;1197;138894;-73
2021/09/16 03:24:52;;;;;;;0.40;0.10;;;;;;;17.35;65.90;100088.05;112401;1198;94835;-72
2021/09/16 03:27:18;;;;;;;0.40;0.10;;;;;;;17.31;65.71;100087.21;112329;1203;94823;-72
2021/09/16 03:29:45;;;;;;;0.40;0.10;;;;;;;17.26;65.92;100086.45;112208;1197;137692;-73
2021/09/16 03:32:19;;;;;;;0.40;0.10;;;;;;;17.21;66.05;100084.39;112325;1205;96958;-74
2021/09/16 03:34:49;;;;;;;0.40;0.10;;;;;;;17.25;66.14;100078.58;112242;1197;138071;-72
2021/09/16 03:37:15;;;;;;;0.40;0.10;;;;;;;17.25;66.00;100078.44;112373;1197;109300;-73
2021/09/16 03:39:42;;;;;;;0.40;0.10;;;;;;;17.21;66.13;100072.88;112363;1197;95119;-73
2021/09/16 03:42:09;;;;;;;0.40;0.10;;;;;;;17.24;66.10;100073.29;112334;1199;138211;-73
2021/09/16 03:44:36;;;;;;;0.40;0.10;;;;;;;17.20;66.18;100072.02;112410;1203;95470;-72
2021/09/16 03:47:04;;;;;;;0.40;0.10;;;;;;;17.22;66.23;100068.76;112278;1198;138003;-72
2021/09/16 03:49:35;;;;;;;0.40;0.10;;;;;;;17.20;66.34;100061.10;112474;1198;94831;-74
2021/09/16 03:52:02;;;;;;;0.40;0.10;;;;;;;17.19;66.36;100062.05;112287;1199;137533;-73
2021/09/16 03:54:29;;;;;;;0.40;0.10;;;;;;;17.21;66.36;100056.40;112351;1197;94840;-72
2021/09/16 03:56:56;;;;;;;0.40;0.10;;;;;;;17.21;66.27;100059.45;112407;1197;94934;-72
2021/09/16 03:59:23;;;;;;;0.40;0.10;;;;;;;17.20;66.27;100056.27;112253;1199;137694;-71
2021/09/16 04:01:49;;;;;;;0.40;0.10;;;;;;;17.19;66.33;100058.11;112392;1205;95333;-72
2021/09/16 04:04:16;;;;;;;0.40;0.10;;;;;;;17.15;66.38;100056.23;112366;1203;137784;-73
2021/09/16 04:06:43;;;;;;;0.40;0.10;;;;;;;17.14;66.62;100055.75;112430;1197;108901;-71
2021/09/16 04:09:09;;;;;;;0.40;0.10;;;;;;;17.16;66.52;100059.23;112265;1200;95330;-71
2021/09/16 04:11:42;;;;;;;0.40;0.10;;;;;;;17.17;66.52;100057.35;112298;1205;137698;-72
2021/09/16 04:14:08;;;;;;;0.40;0.10;;;;;;;17.17;66.64;100057.17;112360;1203;94811;-72
2021/09/16 04:16:35;;;;;;;0.40;0.10;;;;;;;17.11;66.83;100057.55;112266;1197;138460;-72
2021/09/16 04:19:02;;;;;;;0.40;0.10;;;;;;;17.09;66.82;100052.23;112379;1198;94840;-72
2021/09/16 04:21:28;;;;;;;0.40;0.10;;;;;;;17.12;66.94;100052.77;112271;1197;94824;-72
2021/09/16 04:23:55;;;;;;;0.40;0.10;;;;;;;17.16;66.91;100053.83;112244;1197;137910;-72
2021/09/16 04:26:22;;;;;;;0.40;0.10;;;;;;;17.15;66.95;100054.59;112361;1198;94981;-72
2021/09/16 04:28:49;;;;;;;0.40;0.10;;;;;;;17.16;67.01;100052.56;112231;1205;138242;-72
2021/09/16 04:31:15;;;;;;;0.40;0.10;;;;;;;17.14;66.82;100053.42;112294;1203;95368;-72
2021/09/16 04:33:42;;;;;;;0.40;0.10;;;;;;;17.12;66.99;100052.80;112380;1203;95384;-71
2021/09/16 04:36:09;;;;;;;0.40;0.10;;;;;;;17.07;67.02;100055.04;112240;1204;137229;-72
2021/09/16 04:38:35;;;;;;;0.40;0.10;;;;;;;17.05;67.24;100051.40;112416;1204;94815;-72
2021/09/16 04:41:02;;;;;;;0.40;0.10;;;;;;;17.07;67.43;100046.64;112312;1198;138390;-71
2021/09/16 04:43:29;;;;;;;0.40;0.10;;;;;;;17.07;67.46;100052.18;112105;1198;109328;-71
2021/09/16 04:45:55;;;;;;;0.40;0.10;;;;;;;17.06;67.50;100057.10;112355;1198;95737;-73
2021/09/16 04:48:22;;;;;;;0.40;0.10;;;;;;;17.08;67.57;100056.80;112306;1197;137151;-72
2021/09/16 04:50:49;;;;;;;0.40;0.10;;;;;;;17.07;67.82;100057.06;112308;1205;94839;-71
2021/09/16 04:53:16;;;;;;;0.40;0.10;;;;;;;17.00;68.07;100055.09;112278;1197;138409;-72
2021/09/16 04:55:42;;;;;;;0.40;0.10;;;;;;;17.00;68.20;100055.80;112338;1198;108459;-72
2021/09/16 04:58:09;;;;;;;0.40;0.10;;;;;;;17.03;68.59;100056.92;112178;1198;138062;-72
2021/09/16 05:00:36;;;;;;;0.40;0.20;;;;;;;17.01;68.90;100054.16;112219;1200;94926;-71
2021/09/16 05:03:02;;;;;;;0.40;0.10;;;;;;;16.95;69.08;100055.98;112295;1203;96104;-73
2021/09/16 05:05:29;;;;;;;0.40;0.10;;;;;;;16.92;69.41;100053.61;112137;1201;137430;-72
2021/09/16 05:07:56;;;;;;;0.40;0.10;;;;;;;16.92;69.56;100052.54;112267;1199;107340;-72
2021/09/16 05:10:23;;;;;;;0.40;0.10;;;;;;;16.94;69.70;100048.30;112201;1203;138441;-72
2021/09/16 05:12:50;;;;;;;0.40;0.10;;;;;;;16.89;69.82;100049.64;112191;1199;94862;-72
2021/09/16 05:15:17;;;;;;;0.40;0.10;;;;;;;16.83;70.11;100048.52;112135;1199;95362;-72
2021/09/16 05:17:43;;;;;;;0.40;0.10;;;;;;;16.81;70.22;100047.27;112028;1198;138552;-71
2021/09/16 05:20:11;;;;;;;0.40;0.10;;;;;;;16.81;70.29;100045.56;112214;1199;96014;-73
2021/09/16 05:22:38;;;;;;;0.40;0.10;;;;;;;16.86;70.33;100046.02;112187;1198;138891;-73
2021/09/16 05:25:05;;;;;;;0.40;0.20;;;;;;;16.99;70.35;100042.06;112323;1205;94938;-74
2021/09/16 05:27:32;;;;;;;0.40;0.20;;;;;;;17.02;70.08;100047.45;112327;1204;94868;-72
2021/09/16 05:29:59;;;;;;;0.40;0.20;;;;;;;17.02;70.01;100049.80;112120;1198;150431;-73
2021/09/16 05:32:27;;;;;;;0.40;0.20;;;;;;;17.09;69.92;100048.11;112168;1198;96145;-73
2021/09/16 05:34:55;;;;;;;0.40;0.10;;;;;;;17.17;69.69;100049.45;112045;1201;138082;-73
2021/09/16 05:37:23;;;;;;;0.40;0.10;;;;;;;17.26;69.52;100051.61;112195;1199;94803;-73
2021/09/16 05:39:53;;;;;;;0.40;0.10;;;;;;;17.21;69.62;100047.63;112359;1198;109236;-73
2021/09/16 05:42:20;;;;;;;0.40;0.10;;;;;;;17.26;69.74;100049.67;112099;1199;140524;-74
2021/09/16 05:44:47;;;;;;;0.40;0.10;;;;;;;17.27;69.86;100044.19;112256;1206;94807;-73
2021/09/16 05:47:14;;;;;;;0.40;0.10;;;;;;;17.26;69.91;100039.26;112161;1199;138137;-73
2021/09/16 05:49:40;;;;;;;0.40;0.10;;;;;;;17.18;70.09;100034.34;112190;1200;94841;-74
2021/09/16 05:52:07;;;;;;;0.40;0.20;;;;;;;17.14;70.42;100027.06;112090;1199;137903;-74
2021/09/16 05:54:34;;;;;;;0.40;0.10;;;;;;;17.12;70.73;100017.30;112193;1199;95525;-75
2021/09/16 05:57:00;;;;;;;0.40;0.10;;;;;;;17.14;70.93;100006.08;112128;1200;94912;-74
2021/09/16 05:59:27;;;;;;;0.40;0.10;;;;;;;17.22;70.91;99993.89;112075;1198;137983;-74
2021/09/16 06:01:54;;;;;;;0.40;0.10;;;;;;;17.37;70.78;99996.75;112271;1199;94808;-74
2021/09/16 06:04:20;;;;;;;0.40;0.10;;;;;;;17.45;70.24;100001.66;112126;1198;137852;-73
2021/09/16 06:06:47;;;;;;;0.40;0.10;;;;;;;17.42;70.37;100002.95;112271;1199;94817;-74
2021/09/16 06:09:15;;;;;;;0.40;0.10;;;;;;;17.44;70.28;100002.11;112213;1199;95032;-72
2021/09/16 06:11:42;;;;;;;0.40;0.10;;;;;;;17.47;70.22;100009.77;112140;1199;138089;-73
2021/09/16 06:14:09;;;;;;;0.40;0.10;;;;;;;17.50;70.19;100008.87;112155;1199;94944;-73
2021/09/16 06:16:36;;;;;;;0.40;0.10;;;;;;;17.52;70.12;100013.41;112127;1200;137926;-72
2021/09/16 06:19:10;;;;;;;0.40;0.10;;;;;;;17.59;70.03;100016.95;112259;1199;95387;-73
2021/09/16 06:21:36;;;;;;;0.40;0.10;;;;;;;17.60;69.91;100016.02;112283;1205;107429;-73
2021/09/16 06:24:03;;;;;;;0.40;0.10;;;;;;;17.65;69.79;100012.85;112129;1199;137249;-72
2021/09/16 06:26:32;;;;;;;0.40;0.10;;;;;;;17.61;69.73;100015.62;112276;1200;97700;-73
2021/09/16 06:29:04;;;;;;;0.40;0.10;;;;;;;17.65;69.92;100020.39;112222;1199;137641;-76
2021/09/16 06:31:30;;;;;;;0.40;0.10;;;;;;;17.73;69.81;100021.10;112282;1200;94847;-74
2021/09/16 06:33:57;;;;;;;0.40;0.10;;;;;;;17.80;69.60;100027.54;112248;1200;94969;-73
2021/09/16 06:36:24;;;;;;;0.40;0.10;;;;;;;17.88;69.61;100026.11;112388;1198;137771;-72
2021/09/16 06:38:50;;;;;;;0.40;0.10;;;;;;;17.89;69.18;100029.99;112267;1203;95044;-73
2021/09/16 06:41:17;;;;;;;0.40;0.10;;;;;;;17.93;69.31;100030.30;112194;1199;137899;-74
2021/09/16 06:43:44;;;;;;;0.40;0.10;;;;;;;17.92;69.29;100028.75;112272;1205;109592;-72
2021/09/16 06:46:11;;;;;;;0.40;0.10;;;;;;;17.89;69.47;100037.36;112137;1200;139179;-73
2021/09/16 06:48:38;;;;;;;0.40;0.10;;;;;;;17.94;69.67;100040.86;112273;1200;94945;-74
2021/09/16 06:51:05;;;;;;;0.40;0.10;;;;;;;17.96;69.52;100040.74;112253;1198;94800;-73
2021/09/16 06:53:43;;;;;;;0.40;0.10;;;;;;;18.01;69.36;100040.09;112160;1205;139135;-72
2021/09/16 06:56:10;;;;;;;0.40;0.10;;;;;;;17.97;69.31;100046.45;112333;1200;94843;-73
2021/09/16 06:59:12;;;;;;;0.40;0.10;;;;;;;17.95;69.20;100041.00;112142;1206;634014;-74
2021/09/16 07:01:39;;;;;;;0.40;0.10;;;;;;;17.85;69.32;100040.68;113113;1196;93933;-76
2021/09/16 07:04:06;;;;;;;0.40;0.10;;;;;;;17.80;69.37;100042.07;113059;1196;136750;-75
2021/09/16 07:06:34;;;;;;;0.40;0.10;;;;;;;17.75;69.75;100046.33;113161;1196;94457;-74
2021/09/16 07:09:01;;;;;;;0.40;0.10;;;;;;;17.69;70.26;100036.27;113103;1196;93871;-74
2021/09/16 07:11:27;;;;;;;0.40;0.10;;;;;;;17.59;70.58;100029.71;112946;1197;138327;-74
2021/09/16 07:13:54;;;;;;;0.40;0.10;;;;;;;17.51;70.89;100021.17;113118;1196;93896;-74
2021/09/16 07:16:21;;;;;;;0.40;0.10;;;;;;;17.49;71.29;100022.22;113021;1196;138194;-73
2021/09/16 07:18:48;;;;;;;0.40;0.10;;;;;;;17.46;71.24;100018.61;113184;1196;93842;-74
2021/09/16 07:21:14;;;;;;;0.40;0.10;;;;;;;17.50;71.49;100019.47;113135;1196;94028;-74
2021/09/16 07:23:41;;;;;;;0.40;0.10;;;;;;;17.57;71.42;100015.44;113002;1196;137011;-75
2021/09/16 07:26:22;;;;;;;0.40;0.10;;;;;;;17.66;71.38;100017.09;113082;1196;94358;-75
2021/09/16 07:28:48;;;;;;;0.40;0.10;;;;;;;17.77;71.18;100017.29;112975;1196;137375;-75
2021/09/16 07:31:15;;;;;;;0.40;0.10;;;;;;;17.85;70.81;100015.69;113043;1196;93968;-74
2021/09/16 07:33:42;;;;;;;0.40;0.10;;;;;;;17.92;70.67;100017.60;113079;1196;93932;-75
2021/09/16 07:36:09;;;;;;;0.40;0.10;;;;;;;18.06;70.45;100018.39;112968;1196;137356;-74
2021/09/16 07:38:35;;;;;;;0.40;0.10;;;;;;;18.14;70.52;100013.70;113115;1196;93855;-74
2021/09/16 07:41:02;;;;;;;0.40;0.10;;;;;;;18.15;70.16;100015.44;112987;1196;136997;-72
2021/09/16 07:43:29;;;;;;;0.40;0.10;;;;;;;18.14;69.95;100014.79;113014;1196;93874;-73
2021/09/16 07:45:56;;;;;;;0.40;0.10;;;;;;;18.19;69.88;100013.08;113098;1196;93881;-75
2021/09/16 07:48:22;;;;;;;0.40;0.10;;;;;;;18.27;70.04;100007.67;112977;1196;137201;-74
2021/09/16 07:50:50;;;;;;;0.40;0.10;;;;;;;18.29;69.84;100006.83;113198;1196;95010;-73
2021/09/16 07:53:17;;;;;;;0.40;0.10;;;;;;;18.33;69.97;100006.78;112989;1196;136925;-74
2021/09/16 07:55:45;;;;;;;0.40;0.10;;;;;;;18.44;69.80;100006.60;113035;1197;93986;-73
2021/09/16 07:58:12;;;;;;;0.40;0.10;;;;;;;18.61;69.62;100003.30;112923;1196;137565;-74
2021/09/16 08:00:38;;;;;;;0.40;0.10;;;;;;;18.77;69.04;100005.51;113255;1196;93881;-74
2021/09/16 08:03:05;;;;;;;0.40;0.10;;;;;;;18.97;69.04;100001.66;113273;1196;94047;-73
2021/09/16 08:05:32;;;;;;;0.40;0.10;;;;;;;19.08;68.32;100002.38;113088;1197;136994;-74
2021/09/16 08:07:59;;;;;;;0.40;0.10;;;;;;;19.21;68.28;100007.05;113148;1197;93999;-72
2021/09/16 08:10:26;;;;;;;0.40;0.10;;;;;;;19.34;67.32;100010.33;113086;1196;137488;-72
2021/09/16 08:12:52;;;;;;;0.40;0.10;;;;;;;19.27;67.26;100009.58;113226;1196;93932;-74
2021/09/16 08:15:19;;;;;;;0.40;0.10;;;;;;;19.34;67.50;100011.18;113047;1198;93861;-72
2021/09/16 08:17:46;;;;;;;0.40;0.10;;;;;;;19.40;67.25;100018.19;113094;1196;137564;-73
2021/09/16 08:20:14;;;;;;;0.40;0.10;;;;;;;19.42;67.32;100018.77;113093;1198;107195;-73
2021/09/16 08:22:43;;;;;;;0.40;0.10;;;;;;;19.45;67.13;100016.41;112954;1198;138703;-73
2021/09/16 08:25:12;;;;;;;0.40;0.10;;;;;;;19.45;67.00;100014.96;113412;1195;93986;-73
2021/09/16 08:27:39;;;;;;;0.40;0.10;;;;;;;19.49;67.18;100018.27;113116;1196;107551;-74
2021/09/16 08:30:08;;;;;;;0.40;0.10;;;;;;;19.61;66.93;100017.79;112943;1196;137494;-74
2021/09/16 08:32:35;;;;;;;0.40;0.10;;;;;;;19.68;66.51;100012.65;113206;1196;94441;-74
2021/09/16 08:35:04;;;;;;;0.40;0.10;;;;;;;19.66;66.54;100015.64;113109;1196;136673;-73
2021/09/16 08:37:34;;;;;;;0.40;0.10;;;;;;;19.64;66.59;100014.73;113126;1198;108606;-73
2021/09/16 08:40:03;;;;;;;0.40;0.10;;;;;;;19.69;67.27;100010.02;113253;1195;136486;-72
2021/09/16 08:42:30;;;;;;;0.40;0.00;;;;;;;19.77;66.50;100007.34;113082;1198;93891;-73
2021/09/16 08:44:57;;;;;;;0.40;0.10;;;;;;;19.86;66.61;100009.60;113469;1196;93863;-72
2021/09/16 08:47:27;;;;;;;0.40;0.10;;;;;;;19.84;66.19;100003.05;113488;1195;136584;-72
2021/09/16 08:49:54;;;;;;;0.40;0.10;;;;;;;19.81;66.19;100005.09;113197;1196;106585;-74
2021/09/16 08:52:22;;;;;;;0.40;0.10;;;;;;;19.84;66.66;100002.03;113088;1196;138129;-73
2021/09/16 08:54:50;;;;;;;0.40;0.10;;;;;;;19.97;66.35;100004.70;113399;1194;94033;-74
2021/09/16 08:57:17;;;;;;;0.40;0.10;;;;;;;20.07;66.18;100005.01;113813;1194;108571;-73
2021/09/16 08:59:44;;;;;;;0.40;0.10;;;;;;;20.24;66.27;99999.84;113307;1196;136824;-73
2021/09/16 09:02:12;;;;;;;0.40;0.10;;;;;;;20.32;65.80;99994.97;113436;1196;93981;-73
2021/09/16 09:04:40;;;;;;;0.40;0.10;;;;;;;20.31;65.59;99995.51;113824;1192;138670;-74
2021/09/16 09:07:07;;;;;;;0.40;0.10;;;;;;;20.37;65.79;99990.02;113929;1193;93857;-73
2021/09/16 09:09:34;;;;;;;0.40;0.10;;;;;;;20.39;65.55;99988.43;114168;1190;93877;-73
2021/09/16 09:12:10;;;;;;;0.40;0.10;;;;;;;20.46;65.52;99987.42;113992;1190;137424;-73
2021/09/16 09:14:47;;;;;;;0.40;0.10;;;;;;;20.62;65.75;99981.75;114115;1190;94711;-73
2021/09/16 09:17:22;;;;;;;0.40;0.00;;;;;;;20.81;64.88;99978.89;113973;1192;137167;-74
2021/09/16 09:19:51;;;;;;;0.40;0.10;;;;;;;20.90;64.95;99978.75;114037;1192;106953;-73
2021/09/16 09:22:19;;;;;;;0.40;0.10;;;;;;;20.90;64.77;99976.61;113912;1190;136871;-74
2021/09/16 09:24:47;;;;;;;0.40;0.10;;;;;;;20.87;64.50;99978.61;114515;1190;93912;-73
2021/09/16 09:27:31;;;;;;;0.40;0.10;;;;;;;20.92;65.05;99978.02;114024;1192;109624;-74
2021/09/16 09:30:20;;;;;;;0.40;0.10;;;;;;;21.00;64.61;99976.70;114064;1190;136677;-73
2021/09/16 09:33:03;;;;;;;0.40;0.10;;;;;;;21.02;64.09;99972.02;114120;1192;94241;-74
2021/09/16 09:35:43;;;;;;;0.40;0.10;;;;;;;21.17;64.08;99972.14;113777;1193;136927;-73
2021/09/16 09:38:24;;;;;;;0.40;0.10;;;;;;;21.28;63.81;99978.57;114086;1190;108999;-75
2021/09/16 09:40:56;;;;;;;0.40;0.10;;;;;;;21.31;63.73;99986.98;114037;1190;136674;-74
2021/09/16 09:43:29;;;;;;;0.40;0.10;;;;;;;21.42;63.66;99986.15;114085;1190;93896;-74
2021/09/16 09:46:05;;;;;;;0.40;0.10;;;;;;;21.50;63.51;99986.55;114191;1190;94363;-74
2021/09/16 09:48:38;;;;;;;0.40;0.10;;;;;;;21.88;62.39;99985.39;113994;1192;136849;-76
2021/09/16 09:51:06;;;;;;;0.40;0.10;;;;;;;22.13;61.61;99978.02;114059;1193;107744;-73
2021/09/16 09:53:42;;;;;;;0.40;0.10;;;;;;;22.16;61.45;99974.31;114069;1193;136563;-74
2021/09/16 09:56:29;;;;;;;0.40;0.10;;;;;;;22.03;61.51;99981.89;114142;1190;93910;-73
2021/09/16 09:58:55;;;;;;;0.40;0.10;;;;;;;21.96;62.08;99973.93;113995;1190;138150;-74
2021/09/16 10:01:32;;;;;;;0.40;0.10;;;;;;;21.96;62.25;99972.89;114056;1192;94220;-75
2021/09/16 10:04:19;;;;;;;0.40;0.10;;;;;;;22.03;62.27;99976.45;114156;1193;94435;-74
2021/09/16 10:06:46;;;;;;;0.40;0.10;;;;;;;22.02;62.15;99976.66;113962;1193;136505;-74
2021/09/16 10:09:13;;;;;;;0.40;0.10;;;;;;;22.07;62.22;99975.58;114060;1190;94634;-74
2021/09/16 10:11:43;;;;;;;0.40;0.10;;;;;;;22.02;62.00;99981.19;114015;1190;136984;-74
2021/09/16 10:14:10;;;;;;;0.40;0.10;;;;;;;22.00;62.50;99976.68;114087;1190;94466;-74
2021/09/16 10:16:37;;;;;;;0.40;0.10;;;;;;;22.04;62.27;99966.73;114009;1192;135742;-74
2021/09/16 10:19:04;;;;;;;0.40;0.10;;;;;;;22.08;62.15;99964.64;114130;1192;94168;-74
2021/09/16 10:21:32;;;;;;;0.40;0.10;;;;;;;22.21;62.06;99972.95;113892;1193;93944;-74
2021/09/16 10:24:00;;;;;;;0.40;0.10;;;;;;;22.47;61.34;99971.08;114133;1192;136970;-73
2021/09/16 10:26:31;;;;;;;0.40;0.10;;;;;;;22.75;61.12;99970.58;113962;1193;93899;-74
2021/09/16 10:28:58;;;;;;;0.40;0.10;;;;;;;22.86;60.50;99972.89;113793;1193;136935;-75
2021/09/16 10:31:25;;;;;;;0.40;0.10;;;;;;;22.79;60.82;99973.80;113894;1193;93983;-77
2021/09/16 10:33:52;;;;;;;0.40;0.10;;;;;;;22.88;61.27;99973.30;114133;1192;93860;-75
2021/09/16 10:36:19;;;;;;;0.40;0.10;;;;;;;22.90;60.96;99976.72;113850;1192;137148;-74
2021/09/16 10:38:52;;;;;;;0.40;0.00;;;;;;;22.81;60.57;99977.82;113947;1193;93934;-75
2021/09/16 10:41:43;;;;;;;0.40;0.10;;;;;;;22.87;61.28;99978.20;114008;1192;136635;-75
2021/09/16 10:44:17;;;;;;;0.40;0.10;;;;;;;23.02;60.77;99977.15;114128;1191;93909;-76
2021/09/16 10:46:46;;;;;;;0.40;0.10;;;;;;;23.24;60.51;99982.36;113889;1192;137206;-75
2021/09/16 10:49:22;;;;;;;0.40;0.10;;;;;;;23.44;60.12;99978.30;114008;1193;108551;-75
2021/09/16 10:52:11;;;;;;;0.40;0.10;;;;;;;23.53;59.32;99988.20;114060;1192;107973;-74
2021/09/16 10:54:49;;;;;;;0.40;0.00;;;;;;;23.50;58.96;99988.98;113975;1190;136869;-74
2021/09/16 10:57:31;;;;;;;0.40;0.10;;;;;;;23.47;59.29;99987.05;113986;1190;93873;-75
2021/09/16 10:59:58;;;;;;;0.40;0.00;;;;;;;23.61;59.76;99984.29;113628;1192;137374;-77
2021/09/16 11:02:26;;;;;;;0.40;0.10;;;;;;;23.68;59.93;99983.46;114111;1191;94356;-74
2021/09/16 11:04:58;;;;;;;0.40;0.10;;;;;;;23.68;59.11;99983.23;113966;1190;137373;-75
2021/09/16 11:07:34;;;;;;;0.40;0.10;;;;;;;23.62;59.25;99979.10;114003;1193;93964;-76
2021/09/16 11:10:17;;;;;;;0.40;0.00;;;;;;;23.53;59.58;99980.02;114050;1190;108481;-75
2021/09/16 11:13:04;;;;;;;0.40;0.10;;;;;;;23.53;59.55;99976.61;113987;1190;138260;-75
2021/09/16 11:15:36;;;;;;;0.40;0.00;;;;;;;23.48;59.70;99981.38;113998;1192;93869;-74
2021/09/16 11:18:17;;;;;;;0.40;0.00;;;;;;;23.42;59.98;99981.02;113803;1190;137174;-75
2021/09/16 11:20:46;;;;;;;0.40;0.00;;;;;;;23.34;60.45;99981.48;113974;1190;108634;-75